Data for 05/17/2010

Time Sea-Level Adjusted Pressure Absolute Pressure Temperature Relative Humidity Dew Point   
(mb) (inHg) (mb) (inHg) (C) (F) (%) (C) (F)
00:05 1018 30.06 847 25.01 12 53.5 42 -0.6 31
00:10 1018 30.06 847 25.01 12.1 53.8 41 -0.7 30.8
00:15 1018 30.06 847 25.01 11.9 53.3 42 -0.6 30.9
00:20 1018 30.06 847 25.01 11.8 53.2 42 -0.6 30.8
00:25 1018 30.06 847 25.01 11.7 53.1 42 -0.8 30.5
00:30 1018 30.06 847 25.01 11.8 53.3 41 -1 30.3
00:35 1018 30.06 847 25.01 11.7 53.1 42 -0.8 30.6
00:40 1018 30.06 847 25.01 11.7 53.1 42 -0.8 30.6
00:45 1018 30.06 847 25.01 11.7 53 42 -0.8 30.6
00:50 1018 30.06 847 25.01 11.7 53.1 42 -0.9 30.5
00:55 1018 30.06 847 25.01 11.7 53 42 -0.7 30.7
01:00 1018 30.06 847 25.01 11.5 52.7 43 -0.7 30.7
01:05 1018 30.06 847 25.01 11.5 52.6 42 -0.8 30.5
01:10 1018 30.06 847 25.01 11.4 52.5 43 -0.7 30.7
01:15 1018 30.06 847 25.01 11.3 52.3 43 -0.8 30.6
01:20 1018 30.06 847 25.01 11.4 52.4 43 -0.7 30.8
01:25 1018 30.06 847 25.01 11.4 52.5 43 -0.7 30.7
01:30 1018 30.06 847 25.01 11.2 52.1 43 -0.8 30.6
01:35 1018 30.06 847 25.01 11.2 52.1 44 -0.7 30.7
01:40 1018 30.06 847 25.01 11.3 52.3 42 -1.1 29.9
01:45 1018 30.06 847 25.01 11.6 52.8 43 -0.6 30.9
01:50 1018 30.06 847 25.01 11.3 52.4 43 -0.8 30.6
01:55 1018 30.06 847 25.01 11.3 52.3 43 -0.7 30.7
02:00 1018 30.06 847 25.01 11.2 52.2 43 -0.8 30.6
02:05 1018 30.06 847 25.01 11.2 52.2 43 -0.8 30.6
02:10 1018 30.06 847 25.01 11 51.9 45 -0.5 31
02:15 1018 30.06 847 25.01 10.8 51.5 44 -0.8 30.6
02:20 1017 30.03 847 25.01 11.1 52 43 -0.9 30.3
02:25 1017 30.03 847 25.01 11.3 52.4 42 -0.9 30.4
02:30 1018 30.06 847 25.01 11.5 52.7 42 -1 30.1
02:35 1017 30.03 847 25.01 11.6 52.8 42 -0.9 30.4
02:40 1017 30.03 847 25.01 11.4 52.5 42 -0.9 30.4
02:45 1017 30.03 847 25.01 11.4 52.6 42 -0.8 30.5
02:50 1017 30.03 847 25.01 11.2 52.1 43 -0.9 30.5
02:55 1017 30.03 847 25.01 11 51.8 44 -0.6 30.8
03:00 1017 30.03 847 25.01 10.9 51.7 44 -0.8 30.5
03:05 1017 30.03 847 25.01 11.1 51.9 43 -1 30.2
03:10 1017 30.03 847 25.01 11.3 52.3 41 -1.3 29.6
03:15 1017 30.03 847 25.01 11.4 52.5 41 -1.3 29.7
03:20 1017 30.03 847 25.01 11.5 52.7 40 -1.4 29.4
03:25 1018 30.06 847 25.01 11.5 52.7 40 -1.4 29.4
03:30 1017 30.03 847 25.01 11.6 52.9 40 -1.5 29.3
03:35 1017 30.03 847 25.01 11.6 52.8 40 -1.6 29.1
03:40 1017 30.03 847 25.01 11.2 52.2 42 -1.3 29.7
03:45 1017 30.03 847 25.01 11 51.8 41 -1.7 29
03:50 1017 30.03 847 25.01 11.2 52.1 40 -1.8 28.7
03:55 1017 30.03 847 25.01 11.4 52.5 40 -1.8 28.7
04:00 1017 30.03 847 25.01 11.5 52.6 40 -1.6 29.1
04:05 1018 30.06 847 25.01 11.5 52.6 39 -1.8 28.8
04:10 1018 30.06 847 25.01 11.4 52.6 40 -1.5 29.2
04:15 1018 30.06 847 25.01 11.3 52.3 41 -1.6 29.2
04:20 1018 30.06 847 25.01 11.3 52.4 41 -1.5 29.3
04:25 1018 30.06 847 25.01 11.1 51.9 41 -1.5 29.3
04:30 1018 30.06 847 25.01 10.9 51.6 41 -1.6 29.1
04:35 1018 30.06 847 25.01 11.2 52.2 40 -1.7 28.9
04:40 1018 30.06 847 25.01 11.2 52.2 41 -1.5 29.3
04:45 1018 30.06 847 25.01 11 51.8 43 -1.1 30.1
04:50 1018 30.06 847 25.01 10.6 51.1 44 -1.2 29.9
04:55 1018 30.06 847 25.01 10.5 50.9 43 -1.4 29.5
05:00 1018 30.06 847 25.01 10.7 51.3 43 -1.4 29.5
05:05 1018 30.06 847 25.01 10.7 51.2 43 -1.3 29.7
05:10 1018 30.06 847 25.01 10.9 51.6 41 -1.7 28.9
05:15 1017 30.03 847 25.01 11.3 52.3 40 -1.8 28.8
05:20 1017 30.03 847 25.01 11.3 52.4 41 -1.5 29.3
05:25 1017 30.03 847 25.01 11.2 52.1 41 -1.5 29.3
05:30 1017 30.03 847 25.01 10.9 51.6 43 -1.1 29.9
05:35 1017 30.03 847 25.01 10.7 51.2 44 -0.9 30.3
05:40 1017 30.03 847 25.01 10.3 50.6 46 -0.8 30.6
05:45 1017 30.03 847 25.01 10.1 50.3 45 -1.2 29.8
05:50 1017 30.03 847 25.01 10.4 50.7 43 -1.5 29.2
05:55 1017 30.03 847 25.01 10.6 51.1 42 -1.7 29
06:00 1017 30.03 847 25.01 10.6 51 44 -1.2 29.8
06:05 1017 30.03 847 25.01 10.6 51 42 -1.8 28.7
06:10 1017 30.03 847 25.01 10.9 51.5 42 -1.5 29.3
06:15 1017 30.03 847 25.01 10.7 51.3 42 -1.5 29.2
06:20 1017 30.03 847 25.01 10.8 51.5 42 -1.5 29.3
06:25 1017 30.03 847 25.01 10.8 51.5 43 -1.4 29.5
06:30 1017 30.03 847 25.01 10.8 51.4 42 -1.5 29.2
06:35 1017 30.03 847 25.01 10.9 51.6 42 -1.5 29.3
06:40 1018 30.06 847 25.01 11.1 52 41 -1.6 29.1
06:45 1018 30.06 847 25.01 11.2 52.2 41 -1.4 29.6
06:50 1017 30.03 847 25.01 11.1 52 42 -1.4 29.5
06:55 1017 30.03 847 25.01 11.2 52.1 42 -1.2 29.9
07:00 1018 30.06 847 25.01 11.3 52.3 42 -1 30.2
07:05 1017 30.03 847 25.01 11.3 52.4 42 -1 30.2
07:10 1017 30.03 847 25.01 11.5 52.6 42 -1 30.2
07:15 1017 30.03 847 25.01 11.6 52.9 42 -0.7 30.7
07:20 1017 30.03 847 25.01 11.7 53.1 41 -1.1 30
07:25 1017 30.03 847 25.01 12.1 53.8 39 -1.3 29.7
07:30 1017 30.03 847 25.01 12.5 54.4 40 -0.8 30.5
07:35 1017 30.03 847 25.01 12.7 54.9 39 -0.9 30.4
07:40 1017 30.03 847 25.01 12.9 55.3 38 -0.9 30.3
07:45 1017 30.03 847 25.01 13.3 55.9 38 -0.8 30.5
07:50 1017 30.03 847 25.01 13.7 56.7 37 -0.6 31
07:55 1017 30.03 847 25.01 13.9 56.9 36 -0.8 30.6
08:00 1017 30.03 847 25.01 14.2 57.6 35 -0.8 30.5
08:05 1017 30.03 847 25.01 14.6 58.3 33 -1.2 29.8
08:10 1017 30.03 847 25.01 15.2 59.4 33 -0.7 30.7
08:15 1017 30.03 847 25.01 15.4 59.6 33 -0.8 30.6
08:20 1017 30.03 847 25.01 15.8 60.4 32 -0.8 30.6
08:25 1017 30.03 847 25.01 16.2 61.2 32 -0.4 31.2
08:30 1017 30.03 847 25.01 16.4 61.5 32 -0.3 31.5
08:35 1017 30.03 846 24.98 16.2 61.2 32 -0.5 31
08:40 1017 30.03 846 24.98 16.9 62.4 30 -0.6 30.9
08:45 1017 30.03 846 24.98 17.2 62.9 31 0.2 32.3
08:50 1017 30.03 846 24.98 17.4 63.4 32 0.7 33.2
08:55 1017 30.03 846 24.98 18 64.3 32 1 33.8
09:00 1017 30.03 846 24.98 17.8 64 32 1.1 33.9
09:05 1017 30.03 846 24.98 17.1 62.7 33 0.7 33.2
09:10 1017 30.03 846 24.98 17.3 63.2 32 0.5 32.8
09:15 1017 30.03 846 24.98 17.6 63.6 32 0.8 33.4
09:20 1017 30.03 846 24.98 17.7 63.8 31 0.5 33
09:25 1017 30.03 846 24.98 17.5 63.4 31 0.4 32.7
09:30 1017 30.03 846 24.98 17.7 63.9 32 0.8 33.5
09:35 1017 30.03 846 24.98 18.4 65 29 0.4 32.7
09:40 1017 30.03 846 24.98 18.1 64.5 30 0.4 32.8
09:45 1017 30.03 846 24.98 18 64.5 31 0.8 33.5
09:50 1017 30.03 846 24.98 18.1 64.6 31 0.8 33.5
09:55 1017 30.03 846 24.98 18 64.3 31 0.8 33.5
10:00 1017 30.03 846 24.98 18.8 65.9 30 1 33.9
10:05 1017 30.03 846 24.98 19.5 67.1 29 1.3 34.3
10:10 1017 30.03 846 24.98 19.1 66.3 29 0.8 33.5
10:15 1017 30.03 846 24.98 19.9 67.8 28 1.2 34.2
10:20 1016 30 846 24.98 19.6 67.3 29 1.2 34.2
10:25 1016 30 846 24.98 18.8 65.9 31 1.5 34.7
10:30 1016 30 846 24.98 19.6 67.2 29 1.1 34
10:35 1016 30 846 24.98 20.9 69.6 28 2 35.6
10:40 1016 30 845 24.95 21.3 70.4 26 1.5 34.7
10:45 1016 30 845 24.95 21.8 71.2 26 1.6 34.9
10:50 1016 30 845 24.95 21.4 70.6 27 1.8 35.3
10:55 1016 30 845 24.95 21.7 71 26 1.6 34.9
11:00 1016 30 845 24.95 21.4 70.6 27 1.8 35.2
11:05 1016 30 845 24.95 21.8 71.2 25 1.3 34.3
11:10 1016 30 845 24.95 22.1 71.8 26 1.7 35.1
11:15 1016 30 845 24.95 22.8 73 25 1.7 35
11:20 1016 30 845 24.95 22.3 72.1 25 1.3 34.4
11:25 1016 30 845 24.95 21.7 71 22 -0.9 30.4
11:30 1016 30 845 24.95 22 71.5 21 -1.1 30
11:35 1016 30 845 24.95 22.2 71.9 24 0.9 33.5
11:40 1016 30 845 24.95 22.9 73.3 18 -2.3 27.9
11:45 1016 30 845 24.95 23 73.5 18 -2.3 27.9
11:50 1016 30 845 24.95 23.2 73.7 17 -3.3 26
11:55 1016 30 845 24.95 23.1 73.6 18 -2.7 27.2
12:00 1016 30 845 24.95 23 73.4 17 -3.3 26.1
12:05 1016 30 845 24.95 23.7 74.7 17 -2.8 26.9
12:10 1016 30 845 24.95 24.2 75.5 17 -2.3 27.9
12:15 1016 30 845 24.95 24.3 75.8 16 -2.8 27
12:20 1016 30 845 24.95 23.8 74.9 16 -3.7 25.4
12:25 1016 30 845 24.95 23.4 74 16 -3.7 25.4
12:30 1016 30 845 24.95 24 75.2 16 -3.3 26
12:35 1015 29.97 845 24.95 24.7 76.5 15 -3.1 26.4
12:40 1015 29.97 845 24.95 24.3 75.8 16 -3 26.5
12:45 1015 29.97 845 24.95 24.2 75.6 15 -3.6 25.6
12:50 1015 29.97 845 24.95 23 73.4 17 -3.3 26
12:55 1015 29.97 844 24.92 24.3 75.7 14 -4.6 23.8
13:00 1015 29.97 844 24.92 24.7 76.4 15 -3.2 26.2
13:05 1015 29.97 844 24.92 24.7 76.4 14 -4 24.8
13:10 1015 29.97 844 24.92 23.5 74.3 16 -3.9 25
13:15 1015 29.97 844 24.92 23.4 74.1 15 -4.1 24.6
13:20 1015 29.97 844 24.92 24.5 76.1 15 -3.9 24.9
13:25 1015 29.97 844 24.92 24.8 76.7 14 -3.9 25.1
13:30 1015 29.97 844 24.92 26.1 78.9 14 -3.1 26.5
13:35 1015 29.97 844 24.92 25.9 78.5 14 -3.1 26.5
13:40 1015 29.97 844 24.92 25.3 77.6 14 -3.4 25.9
13:45 1015 29.97 844 24.92 25.5 77.8 14 -3.6 25.6
13:50 1015 29.97 844 24.92 24.4 75.9 15 -3.9 24.9
13:55 1015 29.97 844 24.92 24.8 76.7 15 -3.4 25.8
14:00 1015 29.97 844 24.92 24 75.3 16 -3.3 26
14:05 1015 29.97 844 24.92 23.9 75 16 -3.3 26.1
14:10 1014 29.94 844 24.92 25 77 14 -3.9 25
14:15 1014 29.94 844 24.92 24.5 76 16 -3.2 26.3
14:20 1014 29.94 844 24.92 25 77 14 -4 24.8
14:25 1014 29.94 844 24.92 25.2 77.4 14 -3.5 25.8
14:30 1014 29.94 844 24.92 25.6 78.1 14 -4.1 24.7
14:35 1014 29.94 844 24.92 26 78.8 14 -3.7 25.4
14:40 1014 29.94 843 24.89 26.4 79.5 13 -3.6 25.6
14:45 1014 29.94 843 24.89 26.1 79 13 -3.8 25.2
14:50 1014 29.94 843 24.89 25.6 78.1 14 -3.6 25.5
14:55 1014 29.94 843 24.89 25.3 77.6 14 -3.5 25.7
15:00 1014 29.94 843 24.89 25.3 77.5 14 -3.7 25.4
15:05 1014 29.94 843 24.89 24.1 75.3 15 -4.1 24.6
15:10 1014 29.94 843 24.89 24.8 76.6 15 -3.5 25.7
15:15 1014 29.94 843 24.89 25.3 77.6 14 -3.8 25.2
15:20 1014 29.94 843 24.89 25.2 77.3 14 -3.8 25.2
15:25 1014 29.94 843 24.89 25.6 78.1 14 -3.5 25.6
15:30 1014 29.94 843 24.89 25.7 78.3 14 -3.2 26.3
15:35 1014 29.94 843 24.89 25 76.9 15 -3.6 25.5
15:40 1013 29.91 843 24.89 25.8 78.4 14 -3.3 26
15:45 1013 29.91 843 24.89 25.8 78.5 14 -3.3 26
15:50 1013 29.91 843 24.89 26.3 79.3 13 -4 24.8
15:55 1013 29.91 843 24.89 26.4 79.5 14 -3.2 26.2
16:00 1013 29.91 842 24.86 25.2 77.4 14 -3.9 24.9
16:05 1013 29.91 842 24.86 24.4 76 14 -4.9 23.2
16:10 1013 29.91 842 24.86 24.7 76.5 13 -4.9 23.1
16:15 1013 29.91 842 24.86 25.1 77.2 14 -4.2 24.5
16:20 1013 29.91 842 24.86 25.4 77.7 13 -4.3 24.3
16:25 1013 29.91 842 24.86 25.2 77.3 13 -4.8 23.4
16:30 1013 29.91 842 24.86 25.2 77.4 14 -4 24.9
16:35 1013 29.91 842 24.86 26.1 78.9 13 -4.6 23.7
16:40 1013 29.91 842 24.86 25.8 78.4 14 -3.9 25
16:45 1013 29.91 842 24.86 25.4 77.7 14 -3.9 24.9
16:50 1013 29.91 842 24.86 25.2 77.3 14 -4 24.7
16:55 1013 29.91 842 24.86 25.6 78.2 14 -3.5 25.6
17:00 1013 29.91 842 24.86 25.9 78.5 14 -3.5 25.7
17:05 1013 29.91 842 24.86 25 76.9 15 -3.5 25.7
17:10 1013 29.91 842 24.86 24.7 76.5 15 -3.5 25.6
17:15 1013 29.91 842 24.86 24.8 76.6 15 -3.7 25.3
17:20 1013 29.91 842 24.86 24.6 76.2 15 -3.8 25.1
17:25 1013 29.91 842 24.86 24.2 75.5 15 -3.9 24.9
17:30 1013 29.91 842 24.86 24.3 75.7 15 -4.1 24.7
17:35 1013 29.91 842 24.86 24.1 75.5 16 -3.4 25.8
17:40 1013 29.91 842 24.86 24.3 75.7 18 -1.4 29.5
17:45 1013 29.91 842 24.86 23.7 74.7 19 -0.7 30.7
17:50 1013 29.91 842 24.86 23.2 73.8 18 -2.5 27.5
17:55 1013 29.91 842 24.86 23 73.4 19 -1.8 28.7
18:00 1013 29.91 842 24.86 23 73.3 18 -2.6 27.4
18:05 1013 29.91 842 24.86 23 73.4 18 -2.4 27.7
18:10 1013 29.91 842 24.86 23 73.3 19 -1.4 29.5
18:15 1013 29.91 842 24.86 23.2 73.7 20 -1 30.2
18:20 1013 29.91 842 24.86 23.4 74.1 19 -1.6 29.2
18:25 1012 29.88 842 24.86 23.3 73.9 18 -2.5 27.5
18:30 1012 29.88 842 24.86 23.3 73.9 19 -1.7 28.9
18:35 1012 29.88 842 24.86 23.9 75.1 17 -2.1 28.2
18:40 1012 29.88 842 24.86 23.8 74.8 19 -1 30.2
18:45 1012 29.88 842 24.86 23.5 74.3 20 -0.4 31.4
18:50 1012 29.88 842 24.86 23.5 74.3 19 -1.4 29.6
18:55 1012 29.88 841 24.83 23.3 74 19 -1.5 29.2
19:00 1012 29.88 841 24.83 23.4 74.2 18 -1.9 28.5
19:05 1012 29.88 841 24.83 23.5 74.3 19 -1.5 29.3
19:10 1012 29.88 841 24.83 23.2 73.7 18 -2 28.3
19:15 1012 29.88 841 24.83 23.1 73.5 19 -2 28.5
19:20 1012 29.88 841 24.83 23.2 73.7 18 -2.6 27.3
19:25 1012 29.88 841 24.83 23.1 73.6 19 -1.7 28.9
19:30 1012 29.88 841 24.83 23 73.3 21 -0.6 30.9
19:35 1012 29.88 841 24.83 22.6 72.6 21 -0.5 31
19:40 1012 29.88 841 24.83 22.3 72.2 21 -0.6 30.9
19:45 1012 29.88 841 24.83 22.1 71.8 22 -0.4 31.4
19:50 1012 29.88 841 24.83 21.8 71.2 22 -0.5 31
19:55 1012 29.88 841 24.83 21.9 71.4 20 -2.1 28.3
20:00 1012 29.88 841 24.83 21.9 71.4 20 -1.9 28.5
20:05 1012 29.88 841 24.83 21.6 70.9 20 -2.1 28.3
20:10 1012 29.88 841 24.83 21.3 70.4 21 -1.5 29.2
20:15 1012 29.88 841 24.83 21.3 70.3 22 -1.3 29.6
20:20 1012 29.88 841 24.83 21.3 70.3 22 -1 30.1
20:25 1012 29.88 841 24.83 21.2 70.2 23 -0.7 30.7
20:30 1012 29.88 841 24.83 21.2 70.1 22 -1 30.3
20:35 1012 29.88 841 24.83 21.2 70.2 22 -1.2 29.9
20:40 1012 29.88 841 24.83 21.1 70 24 -0.3 31.4
20:45 1012 29.88 841 24.83 20.5 68.9 26 0.8 33.4
20:50 1012 29.88 841 24.83 19.7 67.5 26 -0.3 31.4
20:55 1012 29.88 841 24.83 19.7 67.5 25 -0.6 30.9
21:00 1012 29.88 841 24.83 19.8 67.6 24 -1.1 30
21:05 1012 29.88 841 24.83 20 68 24 -1.3 29.7
21:10 1012 29.88 841 24.83 20.4 68.7 23 -1 30.2
21:15 1012 29.88 841 24.83 20.2 68.4 24 -0.8 30.6
21:20 1012 29.88 841 24.83 19.9 67.9 25 -0.6 31
21:25 1012 29.88 841 24.83 19.7 67.5 26 -0.2 31.7
21:30 1012 29.88 841 24.83 19.5 67.1 27 0.2 32.4
21:35 1012 29.88 841 24.83 19.2 66.5 28 0.5 32.9
21:40 1012 29.88 841 24.83 18.9 65.9 30 1 33.9
21:45 1012 29.88 841 24.83 18.4 65.1 31 1 33.8
21:50 1012 29.88 841 24.83 18.1 64.6 32 1.1 34
21:55 1012 29.88 841 24.83 17.8 64 32 1.2 34.1
22:00 1012 29.88 841 24.83 17.6 63.7 33 1.3 34.3
22:05 1012 29.88 841 24.83 17.4 63.2 34 1.4 34.5
22:10 1012 29.88 841 24.83 17.2 63 33 0.8 33.4
22:15 1012 29.88 841 24.83 17.3 63.2 34 1.4 34.5
22:20 1012 29.88 841 24.83 17.2 63 36 2 35.7
22:25 1012 29.88 841 24.83 17.2 62.9 33 1.1 33.9
22:30 1012 29.88 841 24.83 17.2 63 33 0.8 33.5
22:35 1012 29.88 841 24.83 17 62.7 33 0.6 33
22:40 1012 29.88 841 24.83 16.9 62.5 33 0.7 33.2
22:45 1012 29.88 841 24.83 16.7 62 33 0.4 32.8
22:50 1012 29.88 841 24.83 16.5 61.7 34 0.6 33.1
22:55 1012 29.88 841 24.83 16.2 61.2 34 0.6 33.1
23:00 1012 29.88 841 24.83 16.2 61.2 34 0.5 32.9
23:05 1012 29.88 841 24.83 16.5 61.6 36 1.4 34.6
23:10 1012 29.88 841 24.83 16.6 61.8 33 0.3 32.6
23:15 1012 29.88 841 24.83 16.6 62 32 -0.1 31.9
23:20 1012 29.88 841 24.83 16.4 61.6 33 0.3 32.5
23:25 1012 29.88 841 24.83 16.4 61.4 34 0.6 33
23:30 1012 29.88 841 24.83 16.5 61.7 35 1 33.9
23:35 1012 29.88 841 24.83 16.4 61.6 35 1.1 34
23:40 1012 29.88 841 24.83 16.4 61.6 35 1.2 34.1
23:45 1012 29.88 841 24.83 16.4 61.5 35 0.9 33.6
23:50 1012 29.88 841 24.83 16.6 61.9 34 0.7 33.3
23:55 1012 29.88 841 24.83 16.8 62.3 34 0.9 33.7
24:00 1012 29.88 841 24.83 16.6 61.9 37 1.9 35.5